createdAt,value
2023-05-19T00:00:38.277Z,13889.1543
2023-05-19T00:01:39.983Z,13884.3848
2023-05-19T00:02:42.450Z,13895.0771
2023-05-19T00:03:43.415Z,13892.6924
2023-05-19T00:04:44.880Z,13890.1543
2023-05-19T00:05:46.599Z,13887.5381
2023-05-19T00:06:48.140Z,13889.0771
2023-05-19T00:07:49.868Z,13886.6152
2023-05-19T00:08:51.981Z,13886.2305
2023-05-19T00:09:53.104Z,13887.0771
2023-05-19T00:10:54.860Z,13885.8457
2023-05-19T00:11:56.511Z,13891.0771
2023-05-19T00:12:58.083Z,13889.3076
2023-05-19T00:13:59.746Z,13886.7695
2023-05-19T00:15:01.338Z,13886.0771
2023-05-19T00:16:03.042Z,13886.8457
2023-05-19T00:17:04.637Z,13890.6152
2023-05-19T00:18:06.366Z,13886.1543
2023-05-19T00:19:08.022Z,13882.0000
2023-05-19T00:20:09.595Z,13885.0000
2023-05-19T00:21:11.189Z,13885.7695
2023-05-19T00:22:12.899Z,13890.1543
2023-05-19T00:23:14.499Z,13884.5381
2023-05-19T00:24:16.190Z,13884.0000
2023-05-19T00:25:17.795Z,13883.5381
2023-05-19T00:26:19.506Z,13879.9229
2023-05-19T00:27:21.106Z,13879.8457
2023-05-19T00:28:22.770Z,13887.3076
2023-05-19T00:29:24.388Z,13888.9229
2023-05-19T00:30:26.080Z,13887.6924
2023-05-19T00:31:27.747Z,13879.3848
2023-05-19T00:32:29.416Z,13876.8457
2023-05-19T00:33:30.992Z,13883.0000
2023-05-19T00:34:32.921Z,13882.7695
2023-05-19T00:35:34.280Z,13881.5381
2023-05-19T00:36:35.979Z,13882.2305
2023-05-19T00:37:37.510Z,13883.4619
2023-05-19T00:38:39.214Z,13884.8457
2023-05-19T00:39:40.915Z,13887.1543
2023-05-19T00:40:42.600Z,13881.5381
2023-05-19T00:41:44.160Z,13883.6152
2023-05-19T00:42:45.832Z,13883.0000
2023-05-19T00:43:47.403Z,13885.6152
2023-05-19T00:44:49.163Z,13881.6152
2023-05-19T00:45:51.411Z,13886.5381
2023-05-19T00:46:52.391Z,13885.6152
2023-05-19T00:47:53.993Z,13882.0771
2023-05-19T00:48:55.665Z,13882.3076
2023-05-19T00:49:57.302Z,13880.0000
2023-05-19T00:50:58.984Z,13883.0000
2023-05-19T00:52:00.557Z,13882.1543
2023-05-19T00:53:02.254Z,13883.9229
2023-05-19T00:54:03.850Z,13879.1543
2023-05-19T00:55:05.948Z,13883.7695
2023-05-19T00:56:07.186Z,13885.1543
2023-05-19T00:57:08.783Z,13884.0771
2023-05-19T00:58:11.417Z,13882.3848
2023-05-19T00:59:12.143Z,13881.7695
2023-05-19T01:00:13.745Z,13881.4619
2023-05-19T01:01:15.442Z,13882.1543
2023-05-19T01:02:17.027Z,13883.1543
2023-05-19T01:03:18.728Z,13882.2305
2023-05-19T01:04:20.308Z,13882.3848
2023-05-19T01:05:22.112Z,13885.1543
2023-05-19T01:06:23.646Z,13881.9229
2023-05-19T01:07:25.290Z,13882.4619
2023-05-19T01:08:27.012Z,13881.5381
2023-05-19T01:09:28.591Z,13884.1543
2023-05-19T01:10:30.421Z,13883.9229
2023-05-19T01:11:32.411Z,13885.9229
2023-05-19T01:12:33.468Z,13882.7695
2023-05-19T01:13:35.185Z,13883.3076
2023-05-19T01:14:36.732Z,13884.6152
2023-05-19T01:15:38.457Z,13880.5381
2023-05-19T01:16:40.128Z,13884.5381
2023-05-19T01:17:41.820Z,13884.1543
2023-05-19T01:18:43.365Z,13877.3076
2023-05-19T01:19:45.027Z,13881.9229
2023-05-19T01:20:46.668Z,13885.0771
2023-05-19T01:21:48.394Z,13883.2305
2023-05-19T01:22:49.969Z,13880.5381
2023-05-19T01:23:51.580Z,13882.7695
2023-05-19T01:24:53.942Z,13882.7695
2023-05-19T01:25:54.957Z,13888.3848
2023-05-19T01:26:56.965Z,13884.4619
2023-05-19T01:27:58.187Z,13885.7695
2023-05-19T01:28:59.765Z,13883.2305
2023-05-19T01:30:01.547Z,13880.0000
2023-05-19T01:31:03.161Z,13879.0000
2023-05-19T01:32:04.852Z,13881.0771
2023-05-19T01:33:06.470Z,13884.8457
2023-05-19T01:34:08.120Z,13883.6924
2023-05-19T01:35:09.689Z,13885.2305
2023-05-19T01:36:11.322Z,13887.9229
2023-05-19T01:37:13.948Z,13885.3076
2023-05-19T01:38:14.633Z,13884.4619
2023-05-19T01:39:16.282Z,13883.5381
2023-05-19T01:40:17.872Z,13881.0771
2023-05-19T01:41:19.586Z,13878.3848
2023-05-19T01:42:21.230Z,13881.9229
2023-05-19T01:43:22.830Z,13884.6152
2023-05-19T01:44:25.451Z,13887.9229
2023-05-19T01:45:26.148Z,13886.0771
2023-05-19T01:46:27.936Z,13886.3076
2023-05-19T01:47:29.510Z,13883.3076
2023-05-19T01:48:31.092Z,13885.3076
2023-05-19T01:49:32.739Z,13885.2305
2023-05-19T01:50:34.603Z,13887.5381
2023-05-19T01:51:36.097Z,13888.0000
2023-05-19T01:52:38.400Z,13890.6152
2023-05-19T01:53:39.344Z,13883.6152
2023-05-19T01:54:40.947Z,13886.6152
2023-05-19T01:55:42.662Z,13885.9229
2023-05-19T01:56:44.427Z,13884.0000
2023-05-19T01:57:45.994Z,13881.9229
2023-05-19T01:58:47.603Z,13883.2305
2023-05-19T01:59:49.264Z,13884.6152
2023-05-19T02:00:50.894Z,13885.0771
2023-05-19T02:01:52.613Z,13880.3848
2023-05-19T02:02:54.249Z,13883.5381
2023-05-19T02:03:55.792Z,13880.3076
2023-05-19T02:04:57.524Z,13881.4619
2023-05-19T02:05:59.229Z,13880.5381
2023-05-19T02:07:00.770Z,13882.9229
2023-05-19T02:08:02.515Z,13881.0771
2023-05-19T02:09:04.073Z,13883.7695
2023-05-19T02:10:05.724Z,13882.6152
2023-05-19T02:11:07.311Z,13885.3076
2023-05-19T02:12:09.063Z,13882.6152
2023-05-19T02:13:10.984Z,13881.9229
2023-05-19T02:14:12.327Z,13883.6152
2023-05-19T02:15:13.914Z,13885.0771
2023-05-19T02:16:15.639Z,13883.9229
2023-05-19T02:17:17.241Z,13883.7695
2023-05-19T02:18:18.883Z,13887.0771
2023-05-19T02:19:20.667Z,13888.0000
2023-05-19T02:20:22.206Z,13883.6152
2023-05-19T02:21:23.818Z,13886.3076
2023-05-19T02:22:25.464Z,13882.0771
2023-05-19T02:23:27.111Z,13878.5381
2023-05-19T02:24:28.744Z,13883.3076
2023-05-19T02:25:30.390Z,13880.4619
2023-05-19T02:26:32.020Z,13883.1543
2023-05-19T02:27:33.932Z,13882.1543
2023-05-19T02:28:35.360Z,13884.7695
2023-05-19T02:29:37.912Z,13883.7695
2023-05-19T02:30:38.596Z,13883.3076
2023-05-19T02:31:40.308Z,13885.9229
2023-05-19T02:32:41.962Z,13883.3848
2023-05-19T02:33:43.940Z,13883.0000
2023-05-19T02:34:45.215Z,13884.8457
2023-05-19T02:35:46.786Z,13883.0771
2023-05-19T02:36:48.439Z,13886.6924
2023-05-19T02:37:50.224Z,13886.0771
2023-05-19T02:38:51.756Z,13882.2305
2023-05-19T02:39:53.391Z,13878.6152
2023-05-19T02:40:55.141Z,13883.5381
2023-05-19T02:41:56.756Z,13884.4619
2023-05-19T02:42:58.356Z,13881.3076
2023-05-19T02:44:00.476Z,13884.9229
2023-05-19T02:45:01.602Z,13885.6152
2023-05-19T02:46:03.317Z,13885.3076
2023-05-19T02:47:04.882Z,13887.2305
2023-05-19T02:48:06.699Z,13888.1543
2023-05-19T02:49:08.315Z,13887.0771
2023-05-19T02:50:09.924Z,13886.0771
2023-05-19T02:51:11.562Z,13885.6152
2023-05-19T02:52:13.318Z,13885.7695
2023-05-19T02:53:15.064Z,13886.9229
2023-05-19T02:54:17.006Z,13884.6924
2023-05-19T02:55:18.124Z,13877.3848
2023-05-19T02:56:19.819Z,13869.0000
2023-05-19T02:57:21.427Z,13859.3076
2023-05-19T02:58:23.165Z,13856.9229
2023-05-19T02:59:25.715Z,13861.3076
2023-05-19T03:00:26.366Z,13863.0000
2023-05-19T03:01:28.062Z,13862.7695
2023-05-19T03:02:29.764Z,13862.9229
2023-05-19T03:03:31.436Z,13864.1543
2023-05-19T03:04:32.943Z,13856.8457
2023-05-19T03:05:34.659Z,13862.5381
2023-05-19T03:06:36.269Z,13862.9229
2023-05-19T03:07:38.582Z,13865.2305
2023-05-19T03:08:42.176Z,13861.1543
2023-05-19T03:09:41.188Z,13862.8457
2023-05-19T03:10:42.708Z,13859.5381
2023-05-19T03:11:44.393Z,13864.6152
2023-05-19T03:12:46.010Z,13863.6152
2023-05-19T03:13:47.728Z,13867.6152
2023-05-19T03:14:49.390Z,13863.4619
2023-05-19T03:15:50.963Z,13860.0771
2023-05-19T03:16:52.846Z,13857.6152
2023-05-19T03:17:54.278Z,13857.6924
2023-05-19T03:18:55.899Z,13856.6924
2023-05-19T03:19:57.553Z,13856.3848
2023-05-19T03:20:59.179Z,13859.3076
2023-05-19T03:22:00.767Z,13859.6152
2023-05-19T03:23:02.384Z,13860.2305
2023-05-19T03:24:04.108Z,13854.7695
2023-05-19T03:25:09.003Z,13855.2305
2023-05-19T03:26:07.366Z,13856.8457
2023-05-19T03:27:09.029Z,13857.7695
2023-05-19T03:28:10.663Z,13857.7695
2023-05-19T03:29:12.275Z,13855.8457
2023-05-19T03:30:15.017Z,13858.6924
2023-05-19T03:31:15.582Z,13854.7695
2023-05-19T03:32:17.249Z,13854.6924
2023-05-19T03:33:18.927Z,13855.3848
2023-05-19T03:34:21.495Z,13856.1543
2023-05-19T03:35:22.155Z,13856.5381
2023-05-19T03:36:23.745Z,13855.0771
2023-05-19T03:37:25.411Z,13852.2305
2023-05-19T03:38:27.048Z,13860.0771
2023-05-19T03:39:28.660Z,13859.0771
2023-05-19T03:40:30.554Z,13856.7695
2023-05-19T03:41:32.040Z,13857.9229
2023-05-19T03:42:33.693Z,13857.0000
2023-05-19T03:43:35.324Z,13854.6924
2023-05-19T03:44:36.965Z,13857.0000
2023-05-19T03:45:38.681Z,13859.2305
2023-05-19T03:46:40.273Z,13857.7695
2023-05-19T03:47:41.914Z,13857.3076
2023-05-19T03:48:43.578Z,13855.8457
2023-05-19T03:49:45.176Z,13859.0000
2023-05-19T03:50:46.869Z,13857.0000
2023-05-19T03:51:48.443Z,13856.0771
2023-05-19T03:52:50.127Z,13858.8457
2023-05-19T03:53:51.775Z,13857.0771
2023-05-19T03:54:54.482Z,13857.5381
2023-05-19T03:55:55.443Z,13856.3848
2023-05-19T03:56:56.694Z,13860.2305
2023-05-19T03:57:58.373Z,13853.5381
2023-05-19T03:59:00.029Z,13860.9229
2023-05-19T04:00:01.789Z,13855.3848
2023-05-19T04:01:03.373Z,13853.2305
2023-05-19T04:02:04.934Z,13853.6924
2023-05-19T04:03:06.632Z,13859.9229
2023-05-19T04:04:08.269Z,13859.9229
2023-05-19T04:05:10.001Z,13861.6152
2023-05-19T04:06:11.522Z,13855.9229
2023-05-19T04:07:13.181Z,13858.2305
2023-05-19T04:08:14.776Z,13861.1543
2023-05-19T04:09:16.452Z,13857.9229
2023-05-19T04:10:19.239Z,13855.2305
2023-05-19T04:11:19.904Z,13854.3848
2023-05-19T04:12:21.571Z,13860.2305
2023-05-19T04:13:23.237Z,13855.3076
2023-05-19T04:14:25.769Z,13855.3076
2023-05-19T04:15:27.327Z,13854.0771
2023-05-19T04:16:28.224Z,13853.5381
2023-05-19T04:17:29.769Z,13856.2305
2023-05-19T04:18:31.434Z,13854.6152
2023-05-19T04:19:33.027Z,13853.3848
2023-05-19T04:20:35.158Z,13853.7695
2023-05-19T04:21:36.288Z,13854.9229
2023-05-19T04:22:37.972Z,13856.2305
2023-05-19T04:23:39.615Z,13858.0000
2023-05-19T04:24:41.274Z,13856.0000
2023-05-19T04:25:42.940Z,13855.0000
2023-05-19T04:26:44.573Z,13850.5381
2023-05-19T04:27:46.235Z,13852.5381
2023-05-19T04:28:47.879Z,13852.0000
2023-05-19T04:29:49.469Z,13855.9229
2023-05-19T04:30:51.307Z,13852.1543
2023-05-19T04:31:52.779Z,13852.8457
2023-05-19T04:32:55.431Z,13854.2305
2023-05-19T04:33:55.973Z,13851.7695
2023-05-19T04:34:57.754Z,13852.2305
2023-05-19T04:35:59.405Z,13853.5381
2023-05-19T04:37:01.029Z,13852.0000
2023-05-19T04:38:02.664Z,13850.3848
2023-05-19T04:39:04.286Z,13853.7695
2023-05-19T04:40:06.176Z,13852.0771
2023-05-19T04:41:07.558Z,13849.6152
2023-05-19T04:42:09.234Z,13847.3076
2023-05-19T04:43:10.866Z,13846.9229
2023-05-19T04:44:12.479Z,13845.6924
2023-05-19T04:45:14.336Z,13850.3076
2023-05-19T04:46:16.902Z,13852.0000
2023-05-19T04:47:17.323Z,13849.9229
2023-05-19T04:48:19.106Z,13853.0771
2023-05-19T04:49:20.649Z,13850.5381
2023-05-19T04:50:22.423Z,13852.7695
2023-05-19T04:51:24.031Z,13847.9229
2023-05-19T04:52:25.719Z,13847.9229
2023-05-19T04:53:27.277Z,13844.0771
2023-05-19T04:54:28.966Z,13840.6152
2023-05-19T04:55:30.551Z,13834.2305
2023-05-19T04:56:32.328Z,13831.6924
2023-05-19T04:57:33.821Z,13827.7695
2023-05-19T04:58:35.475Z,13826.3076
2023-05-19T04:59:37.690Z,13823.9229
2023-05-19T05:00:38.749Z,13822.7695
2023-05-19T05:01:40.519Z,13831.8457
2023-05-19T05:02:43.251Z,13836.0000
2023-05-19T05:03:43.731Z,13821.0000
2023-05-19T05:04:45.291Z,13810.4619
2023-05-19T05:05:46.969Z,13811.0771
2023-05-19T05:06:48.673Z,13817.1543
2023-05-19T05:07:51.187Z,13817.7695
2023-05-19T05:08:51.857Z,13818.8457
2023-05-19T05:09:53.441Z,13809.9229
2023-05-19T05:10:55.125Z,13806.0000
2023-05-19T05:11:56.904Z,13801.0771
2023-05-19T05:12:58.427Z,13806.4619
2023-05-19T05:14:00.178Z,13815.3848
2023-05-19T05:15:01.788Z,13804.7695
2023-05-19T05:16:03.442Z,13794.0000
2023-05-19T05:17:05.211Z,13795.3076
2023-05-19T05:18:06.704Z,13796.9229
2023-05-19T05:19:08.341Z,13806.0771
2023-05-19T05:20:09.954Z,13794.3076
2023-05-19T05:21:11.604Z,13795.8457
2023-05-19T05:22:13.278Z,13792.3076
2023-05-19T05:23:14.925Z,13786.6924
2023-05-19T05:24:16.476Z,13799.3076
2023-05-19T05:25:18.272Z,13792.7695
2023-05-19T05:26:19.838Z,13784.8457
2023-05-19T05:27:21.564Z,13779.0000
2023-05-19T05:28:23.084Z,13787.0771
2023-05-19T05:29:24.790Z,13787.1543
2023-05-19T05:30:26.335Z,13790.2305
2023-05-19T05:31:28.016Z,13782.2305
2023-05-19T05:32:30.809Z,13773.6152
2023-05-19T05:33:31.190Z,13778.2305
2023-05-19T05:34:33.043Z,13778.6924
2023-05-19T05:35:34.676Z,13792.2305
2023-05-19T05:36:36.328Z,13785.1543
2023-05-19T05:37:37.912Z,13770.3848
2023-05-19T05:38:39.611Z,13773.6152
2023-05-19T05:39:42.198Z,13777.7695
2023-05-19T05:40:42.809Z,13781.1543
2023-05-19T05:41:44.491Z,13786.0000
2023-05-19T05:42:46.178Z,13773.7695
2023-05-19T05:43:48.754Z,13768.0771
2023-05-19T05:44:50.373Z,13764.4619
2023-05-19T05:45:51.097Z,13772.3076
2023-05-19T05:46:52.712Z,13778.0771
2023-05-19T05:47:55.261Z,13776.7695
2023-05-19T05:48:56.958Z,13768.0000
2023-05-19T05:49:58.491Z,13764.6924
2023-05-19T05:50:59.361Z,13773.4619
2023-05-19T05:52:06.428Z,13776.1543
2023-05-19T05:53:02.528Z,13776.9170
2023-05-19T05:54:04.084Z,13766.1543
2023-05-19T05:55:05.807Z,13760.5381
2023-05-19T05:56:07.436Z,13768.0000
2023-05-19T05:57:09.113Z,13768.6924
2023-05-19T05:58:10.724Z,13776.2305
2023-05-19T05:59:12.338Z,13766.1543
2023-05-19T06:00:13.993Z,13762.4619
2023-05-19T06:01:15.689Z,13759.7695
2023-05-19T06:02:17.331Z,13766.6924
2023-05-19T06:03:19.061Z,13781.6152
2023-05-19T06:04:20.573Z,13767.6152
2023-05-19T06:05:23.128Z,13755.3076
2023-05-19T06:06:23.881Z,13762.6924
2023-05-19T06:07:25.573Z,13763.7695
2023-05-19T06:08:27.150Z,13772.2305
2023-05-19T06:09:28.754Z,13767.7695
2023-05-19T06:10:30.552Z,13762.0000
2023-05-19T06:11:32.058Z,13758.4619
2023-05-19T06:12:33.663Z,13766.4619
2023-05-19T06:13:35.572Z,13770.1543
2023-05-19T06:14:36.956Z,13771.0771
2023-05-19T06:15:38.679Z,13760.0771
2023-05-19T06:16:40.331Z,13757.4619
2023-05-19T06:17:41.960Z,13767.4619
2023-05-19T06:18:43.637Z,13769.3848
2023-05-19T06:19:45.302Z,13778.0771
2023-05-19T06:20:46.897Z,13767.1543
2023-05-19T06:21:48.504Z,13752.4619
2023-05-19T06:22:50.083Z,13753.0771
2023-05-19T06:23:51.848Z,13759.2305
2023-05-19T06:24:53.389Z,13761.4619
2023-05-19T06:25:55.071Z,13767.3076
2023-05-19T06:26:56.808Z,13754.8457
2023-05-19T06:27:58.433Z,13754.0771
2023-05-19T06:29:00.126Z,13757.7695
2023-05-19T06:30:01.726Z,13760.1543
2023-05-19T06:31:03.312Z,13760.1543
2023-05-19T06:32:04.912Z,13752.7695
2023-05-19T06:33:06.601Z,13745.9229
2023-05-19T06:34:08.263Z,13758.3076
2023-05-19T06:35:09.844Z,13762.0771
2023-05-19T06:36:11.448Z,13760.7695
2023-05-19T06:37:13.245Z,13754.9229
2023-05-19T06:38:14.799Z,13750.5381
2023-05-19T06:39:17.121Z,13749.4619
2023-05-19T06:40:18.072Z,13751.3076
2023-05-19T06:41:19.698Z,13759.5381
2023-05-19T06:42:21.335Z,13750.3076
2023-05-19T06:43:22.991Z,13741.3076
2023-05-19T06:44:24.708Z,13750.3076
2023-05-19T06:45:26.271Z,13751.7695
2023-05-19T06:46:27.971Z,13753.2305
2023-05-19T06:47:29.656Z,13749.9229
2023-05-19T06:48:31.224Z,13743.0000
2023-05-19T06:49:33.136Z,13744.9229
2023-05-19T06:50:34.849Z,13751.7695
2023-05-19T06:51:36.184Z,13755.4619
2023-05-19T06:52:37.790Z,13750.1543
2023-05-19T06:53:39.501Z,13743.6152
2023-05-19T06:54:41.247Z,13747.3076
2023-05-19T06:55:57.499Z,13748.3848
2023-05-19T06:56:44.500Z,13765.0771
2023-05-19T06:57:46.098Z,13759.5381
2023-05-19T06:58:47.753Z,13744.5381
2023-05-19T06:59:49.448Z,13736.8457
2023-05-19T07:00:51.013Z,13750.2305
2023-05-19T07:01:52.770Z,13752.8457
2023-05-19T07:02:55.128Z,13758.8457
2023-05-19T07:03:56.068Z,13747.6152
2023-05-19T07:04:58.087Z,13735.5381
2023-05-19T07:05:59.609Z,13741.9229
2023-05-19T07:07:00.873Z,13749.4619
2023-05-19T07:08:02.586Z,13757.4619
2023-05-19T07:09:04.225Z,13747.3848
2023-05-19T07:10:05.831Z,13737.6152
2023-05-19T07:11:07.469Z,13740.2305
2023-05-19T07:12:09.105Z,13748.5381
2023-05-19T07:13:10.748Z,13754.5381
2023-05-19T07:14:12.387Z,13755.7695
2023-05-19T07:15:14.075Z,13739.7695
2023-05-19T07:16:15.728Z,13734.0000
2023-05-19T07:17:17.314Z,13745.6152
2023-05-19T07:18:19.095Z,13749.1543
2023-05-19T07:19:20.762Z,13748.3848
2023-05-19T07:20:23.147Z,13736.0771
2023-05-19T07:21:23.880Z,13727.7695
2023-05-19T07:22:25.586Z,13736.0000
2023-05-19T07:23:27.125Z,13744.5381
2023-05-19T07:24:28.810Z,13755.5381
2023-05-19T07:25:30.486Z,13742.6924
2023-05-19T07:26:32.050Z,13737.0771
2023-05-19T07:27:33.663Z,13741.6152
2023-05-19T07:28:35.298Z,13744.8457
2023-05-19T07:29:36.952Z,13744.2305
2023-05-19T07:30:38.590Z,13744.3848
2023-05-19T07:31:41.091Z,13734.0771
2023-05-19T07:32:41.896Z,13738.3076
2023-05-19T07:33:43.496Z,13742.6152
2023-05-19T07:34:45.206Z,13740.5381
2023-05-19T07:35:46.878Z,13740.6924
2023-05-19T07:36:48.568Z,13731.8457
2023-05-19T07:37:50.055Z,13733.0000
2023-05-19T07:38:51.778Z,13735.0771
2023-05-19T07:39:53.384Z,13741.9229
2023-05-19T07:40:55.151Z,13741.9229
2023-05-19T07:41:56.711Z,13731.1543
2023-05-19T07:42:58.306Z,13734.1543
2023-05-19T07:43:59.944Z,13734.6924
2023-05-19T07:45:01.748Z,13736.6152
2023-05-19T07:46:03.589Z,13741.0771
2023-05-19T07:47:05.064Z,13731.0771
2023-05-19T07:48:06.826Z,13723.9229
2023-05-19T07:49:09.323Z,13732.2305
2023-05-19T07:50:09.931Z,13731.7695
2023-05-19T07:51:11.806Z,13743.1543
2023-05-19T07:52:13.389Z,13733.0000
2023-05-19T07:53:15.904Z,13725.6152
2023-05-19T07:54:16.465Z,13731.4619
2023-05-19T07:55:19.100Z,13733.7695
2023-05-19T07:56:19.871Z,13736.6924
2023-05-19T07:57:21.588Z,13736.6924
2023-05-19T07:58:24.269Z,13726.7695
2023-05-19T07:59:25.652Z,13726.6152
2023-05-19T08:00:26.430Z,13727.6152
2023-05-19T08:01:29.049Z,13729.8457
2023-05-19T08:02:29.771Z,13738.9229
2023-05-19T08:03:31.406Z,13728.4619
2023-05-19T08:04:33.069Z,13716.9229
2023-05-19T08:05:34.631Z,13728.2305
2023-05-19T08:06:36.348Z,13733.6924
2023-05-19T08:07:38.032Z,13740.6924
2023-05-19T08:08:39.573Z,13726.9229
2023-05-19T08:09:41.243Z,13713.6152
2023-05-19T08:10:42.884Z,13723.6924
2023-05-19T08:11:44.467Z,13723.8457
2023-05-19T08:12:46.750Z,13741.1543
2023-05-19T08:13:47.705Z,13730.6152
2023-05-19T08:14:49.476Z,13718.3848
2023-05-19T08:15:51.123Z,13722.3848
2023-05-19T08:16:52.716Z,13728.7695
2023-05-19T08:17:54.402Z,13719.9229
2023-05-19T08:18:56.081Z,13733.6924
2023-05-19T08:19:57.798Z,13728.4619
2023-05-19T08:21:00.349Z,13716.5381
2023-05-19T08:22:00.821Z,13721.6152
2023-05-19T08:23:02.564Z,13722.0771
2023-05-19T08:24:04.249Z,13729.9229
2023-05-19T08:25:05.904Z,13727.3848
2023-05-19T08:26:07.488Z,13711.7695
2023-05-19T08:27:09.148Z,13721.7695
2023-05-19T08:28:10.752Z,13720.1543
2023-05-19T08:29:12.486Z,13716.3848
2023-05-19T08:30:14.214Z,13724.7695
2023-05-19T08:31:15.813Z,13711.7695
2023-05-19T08:32:17.439Z,13713.5381
2023-05-19T08:33:19.039Z,13719.9229
2023-05-19T08:34:20.757Z,13715.3848
2023-05-19T08:35:23.397Z,13722.5381
2023-05-19T08:36:24.187Z,13723.0771
2023-05-19T08:37:25.597Z,13709.9229
2023-05-19T08:38:27.276Z,13711.4619
2023-05-19T08:39:28.876Z,13715.3848
2023-05-19T08:40:30.711Z,13714.1543
2023-05-19T08:41:32.300Z,13719.1543
2023-05-19T08:42:34.839Z,13726.0771
2023-05-19T08:43:35.356Z,13709.0771
2023-05-19T08:44:37.109Z,13713.8457
2023-05-19T08:45:38.832Z,13715.4619
2023-05-19T08:46:40.454Z,13715.3076
2023-05-19T08:47:42.076Z,13723.2305
2023-05-19T08:48:43.709Z,13709.3076
2023-05-19T08:49:45.305Z,13708.4619
2023-05-19T08:50:46.945Z,13718.1543
2023-05-19T08:51:48.700Z,13723.6152
2023-05-19T08:52:52.958Z,13738.5381
2023-05-19T08:53:51.913Z,13726.3076
2023-05-19T08:54:53.470Z,13725.8457
2023-05-19T08:55:56.162Z,13719.3076
2023-05-19T08:56:56.782Z,13738.3076
2023-05-19T08:57:58.388Z,13736.6924
2023-05-19T08:58:59.990Z,13744.0000
2023-05-19T09:00:01.669Z,13728.4619
2023-05-19T09:01:03.322Z,13724.0000
2023-05-19T09:02:05.702Z,13733.6152
2023-05-19T09:04:08.373Z,13753.9229
2023-05-19T09:05:09.948Z,13740.0771
2023-05-19T09:06:11.513Z,13728.3076
2023-05-19T09:07:13.190Z,13714.8457
2023-05-19T09:08:14.960Z,13741.5381
2023-05-19T09:09:16.481Z,13747.5381
2023-05-19T09:10:18.177Z,13744.6152
2023-05-19T09:11:19.761Z,13737.0000
2023-05-19T09:12:21.538Z,13716.8457
2023-05-19T09:13:23.038Z,13736.7695
2023-05-19T09:14:24.667Z,13752.6924
2023-05-19T09:15:26.321Z,13760.2305
2023-05-19T09:16:29.942Z,13740.1543
2023-05-19T09:17:29.631Z,13727.1543
2023-05-19T09:18:31.315Z,13714.8457
2023-05-19T09:19:33.036Z,13748.0771
2023-05-19T09:20:34.638Z,13757.6152
2023-05-19T09:21:36.172Z,13762.0771
2023-05-19T09:22:38.225Z,13740.6924
2023-05-19T09:23:39.469Z,13725.2305
2023-05-19T09:24:41.202Z,13720.1543
2023-05-19T09:25:42.716Z,13755.2305
2023-05-19T09:26:44.425Z,13766.3848
2023-05-19T09:27:46.160Z,13753.2305
2023-05-19T09:28:47.735Z,13744.3076
2023-05-19T09:29:49.303Z,13716.7695
2023-05-19T09:30:51.012Z,13748.7695
2023-05-19T09:31:52.738Z,13763.1543
2023-05-19T09:32:54.341Z,13763.7695
2023-05-19T09:33:56.074Z,13739.0000
2023-05-19T09:34:57.549Z,13735.7695
2023-05-19T09:35:59.175Z,13712.7695
2023-05-19T09:37:00.903Z,13751.9229
2023-05-19T09:38:02.488Z,13763.1543
2023-05-19T09:39:04.229Z,13751.0771
2023-05-19T09:40:05.798Z,13728.6152
2023-05-19T09:41:07.484Z,13719.0000
2023-05-19T09:42:09.082Z,13732.9229
2023-05-19T09:43:10.730Z,13751.4619
2023-05-19T09:44:12.400Z,13750.6152
2023-05-19T09:45:14.043Z,13729.3076
2023-05-19T09:46:15.595Z,13705.4619
2023-05-19T09:47:17.313Z,13703.3076
2023-05-19T09:48:18.922Z,13735.0771
2023-05-19T09:49:20.618Z,13743.0771
2023-05-19T09:50:22.208Z,13738.5381
2023-05-19T09:51:23.855Z,13711.0771
2023-05-19T09:52:25.503Z,13707.1543
2023-05-19T09:53:27.226Z,13705.7695
2023-05-19T09:54:28.849Z,13718.8457
2023-05-19T09:55:31.099Z,13717.8457
2023-05-19T09:56:32.120Z,13707.3076
2023-05-19T09:57:33.696Z,13696.6152
2023-05-19T09:58:35.563Z,13694.3848
2023-05-19T09:59:37.041Z,13694.2305
2023-05-19T10:00:38.703Z,13688.9229
2023-05-19T10:01:40.389Z,13696.8457
2023-05-19T10:02:41.960Z,13697.0771
2023-05-19T10:03:43.535Z,13681.0771
2023-05-19T10:04:45.854Z,13682.5381
2023-05-19T10:05:46.883Z,13686.0000
2023-05-19T10:06:48.461Z,13690.1543
2023-05-19T10:07:50.114Z,13688.6152
2023-05-19T10:08:51.741Z,13685.3076
2023-05-19T10:09:53.752Z,13685.4619
2023-05-19T10:10:55.072Z,13681.3076
2023-05-19T10:11:57.181Z,13684.6152
2023-05-19T10:12:58.381Z,13687.0771
2023-05-19T10:14:00.012Z,13685.5381
2023-05-19T10:15:01.598Z,13678.0000
2023-05-19T10:16:03.586Z,13683.0771
2023-05-19T10:17:05.069Z,13679.8457
2023-05-19T10:18:06.557Z,13690.5381
2023-05-19T10:19:08.206Z,13688.9229
2023-05-19T10:20:09.841Z,13679.2305
2023-05-19T10:21:11.495Z,13682.2305
2023-05-19T10:22:13.049Z,13682.0000
2023-05-19T10:23:15.159Z,13680.9229
2023-05-19T10:24:16.301Z,13685.3076
2023-05-19T10:25:17.924Z,13683.4619
2023-05-19T10:26:19.523Z,13683.0000
2023-05-19T10:27:21.247Z,13674.6924
2023-05-19T10:28:22.916Z,13675.3076
2023-05-19T10:29:24.666Z,13677.5381
2023-05-19T10:30:26.137Z,13677.3848
2023-05-19T10:31:27.787Z,13677.3076
2023-05-19T10:32:29.698Z,13681.7695
2023-05-19T10:33:31.631Z,13678.3076
2023-05-19T10:34:32.699Z,13678.5381
2023-05-19T10:35:34.521Z,13684.1543
2023-05-19T10:36:36.052Z,13675.9229
2023-05-19T10:37:38.186Z,13677.5381
2023-05-19T10:38:39.296Z,13674.4619
2023-05-19T10:39:41.109Z,13677.3076
2023-05-19T10:40:42.765Z,13673.7695
2023-05-19T10:41:45.137Z,13674.2305
2023-05-19T10:42:46.019Z,13675.8457
2023-05-19T10:43:47.678Z,13675.4619
2023-05-19T10:44:49.340Z,13672.7695
2023-05-19T10:45:51.003Z,13675.3848
2023-05-19T10:46:54.162Z,13674.1543
2023-05-19T10:47:54.257Z,13677.6152
2023-05-19T10:48:56.966Z,13678.8457
2023-05-19T10:49:57.467Z,13684.1543
2023-05-19T10:50:59.160Z,13690.1543
2023-05-19T10:52:00.758Z,13693.6152
2023-05-19T10:53:03.376Z,13682.8457
2023-05-19T10:54:04.154Z,13691.2305
2023-05-19T10:55:05.738Z,13693.4619
2023-05-19T10:56:07.449Z,13694.4619
2023-05-19T10:57:09.125Z,13695.3848
2023-05-19T10:58:10.838Z,13682.7695
2023-05-19T10:59:12.874Z,13679.9229
2023-05-19T11:00:15.177Z,13700.2305
2023-05-19T11:01:15.761Z,13700.9229
2023-05-19T11:02:18.399Z,13699.0771
2023-05-19T11:03:20.229Z,13684.2305
2023-05-19T11:04:20.781Z,13685.8457
2023-05-19T11:05:22.232Z,13698.8457
2023-05-19T11:06:23.955Z,13705.4619
2023-05-19T11:07:25.556Z,13699.7695
2023-05-19T11:08:27.298Z,13620.3848
2023-05-19T11:09:39.879Z,13686.2305
2023-05-19T11:10:31.348Z,13695.9229
2023-05-19T11:11:33.230Z,13628.6924
2023-05-19T11:12:33.710Z,13685.2305
2023-05-19T11:13:36.667Z,13648.2305
2023-05-19T11:14:37.057Z,13617.6152
2023-05-19T11:15:38.575Z,13617.7695
2023-05-19T11:16:41.404Z,13639.8457
2023-05-19T11:17:41.983Z,13660.6152
2023-05-19T11:18:43.685Z,13643.1543
2023-05-19T11:19:45.249Z,13630.7695
2023-05-19T11:20:47.071Z,13600.8457
2023-05-19T11:21:48.570Z,13609.1543
2023-05-19T11:22:50.169Z,13618.1543
2023-05-19T11:23:51.938Z,13633.0000
2023-05-19T11:24:53.890Z,13626.6152